Time;durP1;ratioP1;P1;durP2;ratioP2;P2;SDS_P1;SDS_P2;PMS_P1;PMS_P2;Temp;Humidity;BMP_temperature;BMP_pressure;BME280_temperature;BME280_humidity;BME280_pressure;Samples;Min_cycle;Max_cycle;Signal;HPM_P1;HPM_P2
2022/09/18 00:04:58;;;;;;;4.75;1.95;;;;;;;10.02;100.00;101514.91;4934361;29;20054;-74
2022/09/18 00:07:23;;;;;;;6.45;2.85;;;;;;;10.00;100.00;101513.47;4932953;29;20024;-74
2022/09/18 00:13:10;;;;;;;6.70;2.45;;;;;;;9.97;100.00;101505.84;4934461;29;20054;-74
2022/09/18 00:15:36;;;;;;;6.82;2.60;;;;;;;9.99;100.00;101514.47;4937228;29;20404;-73
2022/09/18 00:18:02;;;;;;;9.25;2.50;;;;;;;9.97;100.00;101513.84;4934324;29;20068;-74
2022/09/18 00:20:28;;;;;;;6.22;2.55;;;;;;;9.98;100.00;101510.16;4936967;29;20051;-74
2022/09/18 00:22:53;;;;;;;8.00;3.08;;;;;;;9.92;100.00;101501.06;4934150;29;20039;-75
2022/09/18 00:25:18;;;;;;;4.22;2.45;;;;;;;9.93;100.00;101508.06;4948841;29;20579;-76
2022/09/18 00:31:12;;;;;;;9.57;2.72;;;;;;;9.94;100.00;101512.38;4934079;29;20074;-76
2022/09/18 00:33:38;;;;;;;5.93;3.35;;;;;;;9.94;100.00;101507.06;4936914;28;20048;-76
2022/09/18 00:36:06;;;;;;;8.50;2.80;;;;;;;9.95;100.00;101500.69;4934026;29;20110;-75
2022/09/18 00:41:53;;;;;;;5.97;2.45;;;;;;;9.95;100.00;101503.34;4936047;29;20523;-74
2022/09/18 00:44:33;;;;;;;6.57;2.70;;;;;;;9.94;100.00;101510.53;4935981;29;20043;-75
2022/09/18 00:47:11;;;;;;;7.00;2.88;;;;;;;10.01;100.00;101520.44;4935872;29;20315;-74
2022/09/18 00:53:00;;;;;;;10.88;3.10;;;;;;;10.01;100.00;101507.91;4937488;29;20407;-76
2022/09/18 00:55:36;;;;;;;7.93;2.95;;;;;;;9.98;100.00;101499.47;4937028;29;20052;-75
2022/09/18 00:58:03;;;;;;;7.43;2.60;;;;;;;9.95;100.00;101503.34;4935241;29;20166;-76
2022/09/18 01:00:30;;;;;;;8.05;2.70;;;;;;;10.00;100.00;101513.47;4936956;29;20027;-75
2022/09/18 01:02:57;;;;;;;12.02;3.45;;;;;;;9.93;100.00;101514.25;4936919;29;20484;-74
2022/09/18 01:05:35;;;;;;;6.63;2.70;;;;;;;9.94;100.00;101518.56;4935027;29;20050;-75
2022/09/18 01:08:23;;;;;;;5.93;2.65;;;;;;;9.96;100.00;101522.88;4935674;29;20038;-75
2022/09/18 01:11:02;;;;;;;8.60;2.83;;;;;;;9.98;100.00;101535.03;4934966;29;20043;-75
2022/09/18 01:17:01;;;;;;;6.43;2.50;;;;;;;9.98;100.00;101515.50;4936874;28;20102;-77
2022/09/18 01:20:02;;;;;;;9.10;2.50;;;;;;;9.90;100.00;101514.63;4936608;29;20465;-76
2022/09/18 01:22:42;;;;;;;7.57;2.78;;;;;;;9.97;100.00;101519.19;4937086;29;20051;-77
2022/09/18 01:25:32;;;;;;;6.38;2.42;;;;;;;9.87;100.00;101508.84;4937006;29;20079;-76
2022/09/18 01:31:32;;;;;;;7.57;2.90;;;;;;;9.91;100.00;101518.13;4937140;29;20069;-75
2022/09/18 01:37:22;;;;;;;5.88;2.40;;;;;;;9.90;100.00;101501.28;4936904;29;20094;-77
2022/09/18 01:39:57;;;;;;;6.40;2.50;;;;;;;9.89;100.00;101506.81;4951084;29;20031;-76
2022/09/18 01:42:26;;;;;;;11.23;2.92;;;;;;;9.85;100.00;101511.72;4950402;29;20094;-75
2022/09/18 01:44:55;;;;;;;7.47;3.03;;;;;;;9.80;100.00;101494.59;4936250;29;20548;-74
2022/09/18 01:47:24;;;;;;;7.72;3.38;;;;;;;9.69;100.00;101484.44;4934990;29;20130;-75
2022/09/18 01:49:52;;;;;;;10.43;3.33;;;;;;;9.74;100.00;101503.38;4932244;29;20043;-75
2022/09/18 01:52:31;;;;;;;9.20;3.30;;;;;;;9.66;100.00;101491.00;4935955;29;20039;-75
2022/09/18 01:54:58;;;;;;;11.02;3.90;;;;;;;9.73;100.00;101507.06;4934401;29;20516;-74
2022/09/18 02:00:52;;;;;;;8.50;3.83;;;;;;;9.65;100.00;101483.19;4939218;28;20042;-75
2022/09/18 02:03:24;;;;;;;11.70;4.18;;;;;;;9.65;100.00;101486.66;4936001;29;20480;-74
2022/09/18 02:06:03;;;;;;;7.20;4.90;;;;;;;9.73;100.00;101493.72;4936034;29;20484;-74
2022/09/18 02:11:54;;;;;;;10.10;4.43;;;;;;;9.79;100.00;101482.25;4936344;29;20066;-74
2022/09/18 02:14:24;;;;;;;9.63;4.82;;;;;;;9.82;100.00;101496.03;4938517;29;20048;-74
2022/09/18 02:20:22;;;;;;;8.38;4.03;;;;;;;9.75;100.00;101472.97;4936105;29;20104;-75
2022/09/18 02:22:51;;;;;;;13.80;4.65;;;;;;;9.84;100.00;101482.53;4934453;29;20496;-73
2022/09/18 02:25:24;;;;;;;13.40;5.10;;;;;;;9.81;100.00;101470.34;4938445;29;20501;-75
2022/09/18 02:27:50;;;;;;;15.55;4.75;;;;;;;9.87;100.00;101480.28;4935797;29;20385;-75
2022/09/18 02:33:37;;;;;;;10.55;4.40;;;;;;;9.85;100.00;101463.63;4935644;29;20089;-75
2022/09/18 02:39:43;;;;;;;8.27;4.00;;;;;;;9.89;100.00;101472.09;4935624;29;20123;-76
2022/09/18 02:42:19;;;;;;;9.73;3.88;;;;;;;9.86;100.00;101459.94;4935470;29;20039;-75
2022/09/18 02:48:30;;;;;;;9.38;3.60;;;;;;;9.94;100.00;101472.31;4935893;29;20396;-74
2022/09/18 02:51:20;;;;;;;9.10;3.75;;;;;;;9.84;100.00;101453.16;4933635;29;20374;-74
2022/09/18 02:53:55;;;;;;;8.27;3.78;;;;;;;9.91;100.00;101476.22;4949832;29;20066;-74
2022/09/18 02:56:38;;;;;;;9.27;4.13;;;;;;;9.93;100.00;101471.50;4937987;29;20044;-74
2022/09/18 02:59:11;;;;;;;11.07;3.95;;;;;;;9.93;100.00;101468.81;4934991;29;20040;-74
2022/09/18 03:01:41;;;;;;;10.10;3.60;;;;;;;9.90;100.00;101463.03;4933760;29;20083;-74
2022/09/18 03:04:13;;;;;;;5.85;2.92;;;;;;;9.95;100.00;101463.28;4930886;29;20048;-74
2022/09/18 03:06:39;;;;;;;12.48;3.30;;;;;;;9.92;100.00;101463.69;4935072;29;20035;-74
2022/09/18 03:09:04;;;;;;;13.38;4.35;;;;;;;9.93;100.00;101465.31;4938156;28;20055;-73
2022/09/18 03:11:29;;;;;;;8.65;3.38;;;;;;;9.80;100.00;101436.66;4933704;29;20123;-74
2022/09/18 03:13:55;;;;;;;12.38;3.55;;;;;;;9.98;100.00;101459.41;4934773;29;20027;-76
2022/09/18 03:16:20;;;;;;;9.93;3.17;;;;;;;9.99;100.00;101453.03;4937657;29;20059;-75
2022/09/18 03:22:07;;;;;;;9.88;2.75;;;;;;;10.03;100.00;101448.94;4935115;29;20404;-75
2022/09/18 03:27:54;;;;;;;9.65;2.70;;;;;;;10.06;100.00;101453.91;4934936;28;20047;-75
2022/09/18 03:30:22;;;;;;;9.68;3.15;;;;;;;10.00;100.00;101436.81;4949435;29;20145;-75
2022/09/18 03:32:47;;;;;;;8.13;2.40;;;;;;;10.01;100.00;101440.31;4934807;29;20532;-75
2022/09/18 03:35:13;;;;;;;7.97;2.17;;;;;;;10.10;100.00;101444.47;4937600;29;20122;-75
2022/09/18 03:37:38;;;;;;;10.65;2.47;;;;;;;10.02;100.00;101434.75;4934607;29;20480;-74
2022/09/18 03:40:04;;;;;;;9.13;2.95;;;;;;;10.01;100.00;101437.63;4937118;28;20092;-74
2022/09/18 03:42:29;;;;;;;7.32;2.55;;;;;;;10.08;100.00;101444.66;4934584;29;20412;-75
2022/09/18 03:44:56;;;;;;;8.50;2.30;;;;;;;10.03;100.00;101433.75;4934627;29;20489;-74
2022/09/18 03:47:22;;;;;;;13.30;2.83;;;;;;;10.03;100.00;101436.41;4937541;29;20051;-74
2022/09/18 03:49:47;;;;;;;7.55;2.28;;;;;;;9.89;100.00;101415.97;4933227;29;20043;-74
2022/09/18 03:52:13;;;;;;;8.63;2.13;;;;;;;9.99;100.00;101427.13;4934366;29;20035;-74
2022/09/18 03:58:00;;;;;;;4.60;1.63;;;;;;;9.92;100.00;101428.94;4934371;29;20090;-73
2022/09/18 04:00:25;;;;;;;12.82;2.13;;;;;;;9.92;100.00;101428.94;4937372;28;20528;-74
2022/09/18 04:02:50;;;;;;;6.93;2.00;;;;;;;9.86;100.00;101427.88;4934387;29;20528;-73
2022/09/18 04:05:16;;;;;;;4.85;1.83;;;;;;;9.85;100.00;101418.22;4935208;29;20052;-73
2022/09/18 04:07:41;;;;;;;6.60;1.77;;;;;;;9.83;100.00;101432.75;4935960;29;20047;-74
2022/09/18 04:10:07;;;;;;;7.25;1.92;;;;;;;9.76;100.00;101421.22;4934261;29;20035;-75
2022/09/18 04:12:33;;;;;;;6.45;1.80;;;;;;;9.72;100.00;101412.78;4932362;29;20040;-76
2022/09/18 04:14:58;;;;;;;10.07;2.20;;;;;;;9.81;100.00;101424.13;4934202;29;20469;-75
2022/09/18 04:20:46;;;;;;;6.68;1.92;;;;;;;9.85;100.00;101425.41;4937728;29;20070;-72
2022/09/18 04:23:13;;;;;;;8.93;2.25;;;;;;;9.84;100.00;101415.75;4936048;29;20082;-73
2022/09/18 04:29:01;;;;;;;7.00;1.58;;;;;;;9.84;100.00;101421.09;4937653;29;20047;-74
2022/09/18 04:31:26;;;;;;;9.02;1.92;;;;;;;9.83;100.00;101422.94;4940259;29;20039;-74
2022/09/18 04:37:13;;;;;;;8.57;2.08;;;;;;;9.72;100.00;101409.28;4937586;29;20091;-73
2022/09/18 04:39:39;;;;;;;5.67;1.93;;;;;;;9.79;100.00;101429.66;4937238;29;20477;-74
2022/09/18 04:42:04;;;;;;;4.60;1.67;;;;;;;9.78;100.00;101435.19;4937409;29;20286;-74
2022/09/18 04:44:29;;;;;;;8.63;2.00;;;;;;;9.79;100.00;101435.00;4940030;29;20080;-73
2022/09/18 04:46:55;;;;;;;7.63;1.90;;;;;;;9.79;100.00;101431.50;4935943;29;20038;-73
2022/09/18 04:49:20;;;;;;;7.68;1.80;;;;;;;9.82;100.00;101431.94;4938027;28;20464;-73
2022/09/18 04:51:46;;;;;;;8.23;1.92;;;;;;;9.78;100.00;101429.84;4938975;29;20048;-74
2022/09/18 04:54:11;;;;;;;8.68;2.15;;;;;;;9.83;100.00;101427.44;4937149;29;20465;-74
2022/09/18 04:56:36;;;;;;;5.60;1.70;;;;;;;9.80;100.00;101422.47;4939929;29;20048;-73
2022/09/18 05:02:24;;;;;;;3.85;2.38;;;;;;;9.78;100.00;101438.69;4937381;29;20054;-74
2022/09/18 05:08:11;;;;;;;5.43;1.83;;;;;;;9.79;100.00;101424.31;4937248;29;20070;-76
2022/09/18 05:13:58;;;;;;;6.43;3.03;;;;;;;9.69;100.00;101415.00;4938369;29;20070;-75
2022/09/18 05:19:45;;;;;;;7.82;2.17;;;;;;;9.79;100.00;101431.50;4936913;29;20062;-75
2022/09/18 05:28:53;;;;;;;9.13;2.03;;;;;;;9.79;100.00;101436.84;4936708;29;20038;-74
2022/09/18 05:34:41;;;;;;;6.35;1.50;;;;;;;9.87;100.00;101434.88;4936652;29;20660;-75
2022/09/18 05:40:33;;;;;;;10.13;2.20;;;;;;;9.83;100.00;101435.44;4936946;29;20086;-75
2022/09/18 05:46:19;;;;;;;8.35;1.88;;;;;;;9.84;100.00;101434.44;4936830;29;20178;-76
2022/09/18 05:48:48;;;;;;;6.53;1.80;;;;;;;9.79;100.00;101427.00;4935238;29;20489;-75
2022/09/18 05:54:35;;;;;;;11.93;2.70;;;;;;;9.88;100.00;101420.50;4936462;29;20104;-74
2022/09/18 06:00:23;;;;;;;8.60;1.88;;;;;;;9.89;100.00;101427.50;4936128;28;20045;-76
2022/09/18 06:02:52;;;;;;;6.28;1.75;;;;;;;9.93;100.00;101430.59;4936241;29;20130;-75
2022/09/18 06:05:17;;;;;;;4.32;1.70;;;;;;;9.97;100.00;101434.53;4938797;29;20044;-75
2022/09/18 06:07:43;;;;;;;7.23;1.77;;;;;;;9.96;100.00;101432.06;4935809;29;20032;-74
2022/09/18 06:10:08;;;;;;;5.35;1.83;;;;;;;10.03;100.00;101425.72;4934527;29;20381;-74
2022/09/18 06:12:34;;;;;;;7.82;1.90;;;;;;;10.08;100.00;101425.97;4938719;29;20043;-74
2022/09/18 06:14:59;;;;;;;5.63;2.08;;;;;;;10.16;100.00;101428.50;4934534;29;20388;-74
2022/09/18 06:17:24;;;;;;;6.25;1.80;;;;;;;10.24;100.00;101441.72;4938826;28;20412;-73
2022/09/18 06:19:50;;;;;;;9.38;1.98;;;;;;;10.24;100.00;101425.69;4935799;29;20035;-73
2022/09/18 06:22:15;;;;;;;8.17;1.80;;;;;;;10.34;100.00;101428.00;4935739;29;20487;-73
2022/09/18 06:24:40;;;;;;;7.17;1.80;;;;;;;10.40;100.00;101434.38;4933869;29;20338;-74
2022/09/18 06:27:06;;;;;;;5.55;1.70;;;;;;;10.53;100.00;101424.59;4934304;29;20287;-75
2022/09/18 06:29:31;;;;;;;7.65;1.88;;;;;;;10.64;100.00;101425.03;4938550;29;20586;-75
2022/09/18 06:35:19;;;;;;;5.97;2.25;;;;;;;10.86;100.00;101429.22;4936689;28;20046;-74
2022/09/18 06:41:06;;;;;;;7.10;2.47;;;;;;;10.94;100.00;101428.22;4935732;29;20512;-74
2022/09/18 06:43:31;;;;;;;7.20;2.08;;;;;;;10.92;100.00;101416.91;4938237;28;20079;-75
2022/09/18 06:49:18;;;;;;;7.32;2.10;;;;;;;10.90;100.00;101427.78;4935636;29;20131;-74
2022/09/18 06:51:44;;;;;;;8.93;2.33;;;;;;;10.89;100.00;101430.69;4935205;29;20115;-75
2022/09/18 06:57:32;;;;;;;11.55;2.65;;;;;;;10.78;100.00;101416.88;4935659;29;20058;-77
2022/09/18 06:59:57;;;;;;;6.40;2.40;;;;;;;10.81;100.00;101411.13;4936929;28;20393;-76
2022/09/18 07:05:44;;;;;;;10.68;2.83;;;;;;;11.03;100.00;101427.03;4935679;28;20346;-74
2022/09/18 07:11:31;;;;;;;13.40;3.30;;;;;;;11.15;100.00;101436.09;4935243;29;20046;-74
2022/09/18 07:13:57;;;;;;;9.73;2.88;;;;;;;11.18;100.00;101427.66;4929487;29;20048;-73
2022/09/18 07:23:37;;;;;;;7.15;2.40;;;;;;;11.41;100.00;101417.41;4935154;29;20047;-71
2022/09/18 07:26:03;;;;;;;11.52;2.90;;;;;;;11.41;100.00;101428.09;4949031;29;20130;-75
2022/09/18 07:28:29;;;;;;;7.65;2.58;;;;;;;11.34;100.00;101424.59;4933538;29;20075;-73
2022/09/18 07:30:54;;;;;;;8.90;2.72;;;;;;;11.26;100.00;101432.81;4938366;28;20040;-74
2022/09/18 07:36:41;;;;;;;6.47;3.03;;;;;;;11.14;100.00;101421.06;4935298;29;20074;-76
2022/09/18 07:39:06;;;;;;;7.28;2.70;;;;;;;11.11;100.00;101406.25;4935481;29;20484;-74
2022/09/18 07:41:31;;;;;;;7.78;2.85;;;;;;;11.25;100.00;101409.75;4933333;29;20071;-74
2022/09/18 07:43:57;;;;;;;9.77;3.90;;;;;;;11.46;100.00;101416.78;4937266;29;20055;-74
2022/09/18 07:49:43;;;;;;;11.82;4.20;;;;;;;12.41;100.00;101400.13;4934381;29;20286;-75
2022/09/18 07:52:09;;;;;;;10.23;4.60;;;;;;;12.56;100.00;101405.25;4934488;29;20032;-75
2022/09/18 07:54:34;;;;;;;8.95;4.00;;;;;;;12.90;100.00;101390.63;4934409;29;20295;-76
2022/09/18 07:57:00;;;;;;;8.50;3.65;;;;;;;13.54;100.00;101400.31;4937193;29;20063;-74
2022/09/18 07:59:25;;;;;;;8.50;3.38;;;;;;;13.99;100.00;101402.78;4934363;29;20028;-74
2022/09/18 08:01:51;;;;;;;8.00;3.35;;;;;;;14.21;100.00;101397.81;4935137;29;20032;-75
2022/09/18 08:04:16;;;;;;;10.32;3.47;;;;;;;14.28;100.00;101390.47;4935979;29;20078;-76
2022/09/18 08:06:42;;;;;;;6.18;3.17;;;;;;;14.48;100.00;101390.28;4948969;28;20023;-74
2022/09/18 08:09:07;;;;;;;7.53;2.67;;;;;;;14.33;100.00;101387.09;4932396;29;20404;-75
2022/09/18 08:11:32;;;;;;;8.13;3.53;;;;;;;14.13;100.00;101390.00;4932895;29;20039;-75
2022/09/18 08:13:58;;;;;;;7.82;2.42;;;;;;;13.64;100.00;101386.38;4948690;28;20143;-73
2022/09/18 08:19:44;;;;;;;4.75;3.05;;;;;;;12.86;100.00;101412.75;4934356;29;20110;-75
2022/09/18 08:22:10;;;;;;;12.40;3.03;;;;;;;12.59;100.00;101404.00;4932202;29;20134;-76
2022/09/18 08:24:35;;;;;;;8.80;2.70;;;;;;;12.57;100.00;101393.47;4934020;29;20283;-75
2022/09/18 08:27:02;;;;;;;10.10;2.90;;;;;;;12.53;100.00;101394.94;4936669;29;20691;-76
2022/09/18 08:29:30;;;;;;;8.27;3.10;;;;;;;12.56;100.00;101404.44;4934064;29;20338;-74
2022/09/18 08:31:56;;;;;;;6.55;2.50;;;;;;;12.57;100.00;101392.66;4948623;29;20035;-74
2022/09/18 08:34:21;;;;;;;7.57;2.40;;;;;;;12.64;100.00;101407.69;4936702;28;20102;-76
2022/09/18 08:36:46;;;;;;;5.80;1.85;;;;;;;12.56;100.00;101410.63;4932595;29;20031;-75
2022/09/18 08:39:12;;;;;;;10.77;2.92;;;;;;;12.46;100.00;101401.38;4936572;29;20187;-76
2022/09/18 08:41:52;;;;;;;7.05;1.90;;;;;;;12.63;100.00;101414.09;4933940;29;20042;-74
2022/09/18 08:44:27;;;;;;;6.95;2.67;;;;;;;12.84;100.00;101396.84;4933980;29;20050;-76
2022/09/18 08:47:12;;;;;;;7.22;2.40;;;;;;;12.94;100.00;101401.75;4932004;29;20044;-74
2022/09/18 08:49:47;;;;;;;8.27;2.10;;;;;;;13.06;100.00;101405.41;4933890;29;20122;-76
2022/09/18 08:55:41;;;;;;;5.03;2.33;;;;;;;13.23;100.00;101417.28;4934474;29;20408;-75
2022/09/18 08:58:35;;;;;;;4.97;1.80;;;;;;;13.06;100.00;101404.59;4936388;28;20048;-74
2022/09/18 09:04:28;;;;;;;6.78;2.33;;;;;;;12.95;100.00;101403.38;4937180;29;20090;-79
2022/09/18 09:10:33;;;;;;;6.03;1.92;;;;;;;13.27;100.00;101407.75;4937043;29;20070;-78
2022/09/18 09:16:47;;;;;;;6.05;1.92;;;;;;;13.49;100.00;101416.25;4937032;29;20138;-79
2022/09/18 09:19:32;;;;;;;3.30;1.70;;;;;;;13.52;100.00;101420.38;4935446;29;20044;-78
2022/09/18 09:22:18;;;;;;;6.60;2.58;;;;;;;13.53;100.00;101409.41;4937618;28;20574;-79
2022/09/18 09:28:19;;;;;;;6.40;2.15;;;;;;;13.09;100.00;101412.19;4940129;28;20053;-80
2022/09/18 09:30:50;;;;;;;3.97;1.90;;;;;;;12.96;100.00;101413.09;4935407;29;20040;-80
2022/09/18 09:33:30;;;;;;;8.43;2.78;;;;;;;13.04;100.00;101423.59;4936711;29;20039;-78
2022/09/18 09:36:02;;;;;;;4.03;1.73;;;;;;;12.91;100.00;101420.97;4939419;29;20137;-79
2022/09/18 09:38:31;;;;;;;6.53;1.95;;;;;;;12.84;100.00;101425.56;4951117;29;20440;-80
2022/09/18 09:41:00;;;;;;;3.40;1.58;;;;;;;12.71;100.00;101399.59;4939196;28;20052;-79
2022/09/18 09:43:28;;;;;;;2.88;1.60;;;;;;;12.86;100.00;101421.63;4935443;29;20027;-79
2022/09/18 09:45:57;;;;;;;5.70;1.58;;;;;;;12.90;100.00;101395.97;4936270;29;20070;-79
2022/09/18 09:48:36;;;;;;;6.88;1.80;;;;;;;13.11;100.00;101407.44;4935956;29;20091;-79
2022/09/18 09:51:06;;;;;;;5.13;1.80;;;;;;;13.09;100.00;101410.34;4934978;29;20031;-80
2022/09/18 09:53:32;;;;;;;3.80;1.60;;;;;;;13.15;100.00;101404.09;4934225;29;20054;-79
2022/09/18 09:56:10;;;;;;;4.35;1.85;;;;;;;13.14;100.00;101394.41;4935961;29;20036;-80
2022/09/18 09:59:04;;;;;;;3.40;1.25;;;;;;;13.10;100.00;101373.56;4934754;29;20142;-79
2022/09/18 10:05:16;;;;;;;3.45;1.40;;;;;;;13.44;100.00;101372.28;4939125;29;20058;-79
2022/09/18 10:07:55;;;;;;;4.38;1.30;;;;;;;13.64;100.00;101386.38;4935976;29;20036;-80
2022/09/18 10:10:32;;;;;;;4.78;2.10;;;;;;;13.76;100.00;101376.53;4938780;29;20495;-79
2022/09/18 10:13:13;;;;;;;5.53;1.95;;;;;;;13.98;100.00;101376.94;4935593;29;22039;-80
2022/09/18 10:15:42;;;;;;;4.57;1.70;;;;;;;14.05;100.00;101376.88;4935277;29;20042;-80
2022/09/18 10:18:29;;;;;;;5.03;2.20;;;;;;;14.26;100.00;101384.50;4938519;29;20440;-80
2022/09/18 10:21:00;;;;;;;7.35;2.05;;;;;;;14.45;100.00;101370.00;4935938;29;20035;-80
2022/09/18 10:23:53;;;;;;;5.55;1.60;;;;;;;14.72;100.00;101375.84;4938729;29;20039;-79
2022/09/18 10:26:24;;;;;;;9.77;2.03;;;;;;;14.88;100.00;101374.41;4950098;28;20047;-79
2022/09/18 10:32:12;;;;;;;5.80;1.92;;;;;;;15.09;100.00;101381.97;4935672;29;20043;-79
2022/09/18 10:34:39;;;;;;;6.47;1.73;;;;;;;15.17;100.00;101387.00;4933840;29;20051;-79
2022/09/18 10:37:28;;;;;;;5.45;1.90;;;;;;;15.31;100.00;101384.91;4934174;29;20352;-80
2022/09/18 10:43:17;;;;;;;6.97;1.58;;;;;;;15.37;100.00;101375.09;4936042;29;20118;-79
2022/09/18 10:49:29;;;;;;;4.40;1.67;;;;;;;15.01;100.00;101366.09;4935833;28;20078;-79
2022/09/18 10:52:22;;;;;;;3.13;1.70;;;;;;;14.78;100.00;101360.69;4937457;29;20145;-77
2022/09/18 10:54:59;;;;;;;3.70;1.60;;;;;;;14.51;100.00;101355.66;4934060;29;20452;-78
2022/09/18 10:57:32;;;;;;;1.95;1.40;;;;;;;14.28;100.00;101382.41;4935342;29;20515;-79
2022/09/18 10:59:57;;;;;;;3.42;1.42;;;;;;;14.02;100.00;101406.91;4938279;29;20051;-79
2022/09/18 11:02:26;;;;;;;5.63;1.40;;;;;;;13.57;100.00;101404.41;4934156;29;20081;-80
2022/09/18 11:04:52;;;;;;;3.35;0.95;;;;;;;12.92;100.00;101399.28;4937867;28;20126;-79
2022/09/18 11:07:19;;;;;;;1.75;0.90;;;;;;;12.31;100.00;101390.91;4933829;29;20395;-79
2022/09/18 11:09:45;;;;;;;5.60;1.35;;;;;;;11.67;100.00;101387.09;4934854;29;20032;-79
2022/09/18 11:12:28;;;;;;;2.38;0.90;;;;;;;11.55;100.00;101379.88;4933042;29;20112;-78
2022/09/18 11:15:03;;;;;;;4.57;0.95;;;;;;;11.40;100.00;101390.81;4934688;29;20059;-78
2022/09/18 11:17:32;;;;;;;6.10;1.15;;;;;;;11.42;100.00;101391.44;4937525;28;20051;-78
2022/09/18 11:23:27;;;;;;;2.08;1.10;;;;;;;11.49;100.00;101393.06;4937868;29;20046;-78
2022/09/18 11:26:11;;;;;;;3.55;0.93;;;;;;;11.69;100.00;101402.97;4934303;29;20035;-78
2022/09/18 11:28:37;;;;;;;6.22;1.55;;;;;;;11.84;100.00;101406.25;4936794;29;20061;-79
2022/09/18 11:31:12;;;;;;;3.08;1.25;;;;;;;12.05;100.00;101406.03;4935181;29;20244;-79
2022/09/18 11:33:54;;;;;;;2.65;1.40;;;;;;;12.25;100.00;101402.47;4933001;29;20040;-79
2022/09/18 11:36:29;;;;;;;6.57;1.40;;;;;;;12.34;100.00;101401.19;4932687;29;20047;-79
2022/09/18 11:38:57;;;;;;;8.05;1.48;;;;;;;12.32;100.00;101397.91;4949262;29;20066;-79
2022/09/18 11:41:25;;;;;;;3.95;2.30;;;;;;;12.39;100.00;101399.53;4937108;29;20050;-79
2022/09/18 11:44:00;;;;;;;4.30;1.30;;;;;;;12.39;100.00;101398.69;4934445;29;20034;-79
2022/09/18 11:46:40;;;;;;;5.25;1.52;;;;;;;12.27;100.00;101397.72;4934617;29;20482;-79
2022/09/18 11:49:27;;;;;;;9.80;1.60;;;;;;;12.05;100.00;101405.22;4937300;29;20036;-78
2022/09/18 11:52:09;;;;;;;6.60;1.67;;;;;;;12.00;100.00;101418.41;4934362;29;20040;-78
2022/09/18 11:54:50;;;;;;;4.38;1.80;;;;;;;11.91;100.00;101425.03;4937161;29;20044;-77
2022/09/18 11:57:21;;;;;;;8.15;2.10;;;;;;;11.86;100.00;101420.31;4933069;29;20503;-77
2022/09/18 12:00:02;;;;;;;9.63;2.08;;;;;;;11.66;100.00;101404.22;4937208;29;20040;-77
2022/09/18 12:02:40;;;;;;;5.53;1.90;;;;;;;11.77;100.00;101411.59;4933240;29;20059;-78
2022/09/18 12:05:19;;;;;;;5.72;1.67;;;;;;;11.68;100.00;101420.91;4935940;29;20392;-78
2022/09/18 12:08:00;;;;;;;6.35;1.75;;;;;;;11.65;100.00;101407.09;4934354;29;20035;-78
2022/09/18 12:10:32;;;;;;;6.30;1.60;;;;;;;11.64;100.00;101411.63;4934697;29;20488;-78
2022/09/18 12:13:22;;;;;;;5.10;1.30;;;;;;;11.60;100.00;101422.97;4937271;29;20492;-78
2022/09/18 12:16:08;;;;;;;4.45;2.13;;;;;;;11.59;100.00;101415.97;4949128;29;20043;-78
2022/09/18 12:18:45;;;;;;;3.28;1.10;;;;;;;11.55;100.00;101418.22;4948561;29;20352;-79
2022/09/18 12:21:15;;;;;;;2.97;1.33;;;;;;;11.57;100.00;101415.34;4934417;29;20036;-78
2022/09/18 12:23:41;;;;;;;2.55;1.20;;;;;;;11.53;100.00;101400.69;4932589;29;20139;-78
2022/09/18 12:26:49;;;;;;;5.05;1.20;;;;;;;11.49;100.00;101419.84;4934553;29;20059;-78
2022/09/18 12:29:42;;;;;;;2.60;1.10;;;;;;;11.45;100.00;101418.63;4917944;28;20099;-77
2022/09/18 12:32:22;;;;;;;5.32;1.45;;;;;;;11.45;100.00;101413.28;4933162;29;20078;-78
2022/09/18 12:35:10;;;;;;;4.40;1.20;;;;;;;11.62;100.00;101399.47;4936527;29;20058;-78
2022/09/18 12:37:47;;;;;;;2.35;1.10;;;;;;;11.63;100.00;101406.47;4935325;29;20032;-78
2022/09/18 12:40:15;;;;;;;3.17;1.17;;;;;;;11.60;100.00;101406.91;4936011;29;20118;-79
2022/09/18 12:42:58;;;;;;;2.55;1.20;;;;;;;11.64;100.00;101411.63;4940117;29;20400;-79
2022/09/18 12:45:30;;;;;;;4.68;1.20;;;;;;;11.69;100.00;101403.78;4937188;29;20028;-80
2022/09/18 12:48:35;;;;;;;4.93;1.90;;;;;;;11.60;100.00;101396.19;4935436;29;20495;-80
2022/09/18 12:51:16;;;;;;;4.72;1.33;;;;;;;11.54;100.00;101392.44;4936243;29;20460;-80
2022/09/18 12:54:09;;;;;;;9.18;1.70;;;;;;;11.53;100.00;101393.47;4935213;29;20542;-80
2022/09/18 12:56:37;;;;;;;1.20;1.08;;;;;;;11.52;100.00;101399.88;4935944;29;20054;-79
2022/09/18 12:59:31;;;;;;;3.53;1.08;;;;;;;11.51;100.00;101400.09;4939677;29;20066;-79
2022/09/18 13:02:13;;;;;;;1.73;1.50;;;;;;;11.38;100.00;101396.38;4951749;29;20042;-80
2022/09/18 13:04:46;;;;;;;2.15;1.10;;;;;;;11.35;100.00;101396.81;4936817;29;20082;-80
2022/09/18 13:07:19;;;;;;;1.90;1.10;;;;;;;11.28;100.00;101406.69;4935674;29;20039;-79
2022/09/18 13:09:58;;;;;;;3.30;1.10;;;;;;;11.23;100.00;101401.09;4935617;29;20519;-80
2022/09/18 13:12:56;;;;;;;1.88;0.93;;;;;;;11.18;100.00;101406.25;4936277;29;20122;-79
2022/09/18 13:15:33;;;;;;;3.00;1.10;;;;;;;11.13;100.00;101403.34;4935546;29;20403;-79
2022/09/18 13:18:18;;;;;;;2.33;0.90;;;;;;;11.06;100.00;101405.22;4939618;29;20392;-79
2022/09/18 13:20:45;;;;;;;2.20;0.80;;;;;;;11.06;100.00;101397.19;4935280;29;20043;-78
2022/09/18 13:23:18;;;;;;;1.48;0.77;;;;;;;11.04;100.00;101391.22;4934697;29;20495;-79
2022/09/18 13:25:46;;;;;;;1.67;1.10;;;;;;;10.93;100.00;101381.91;4951197;29;20035;-79
2022/09/18 13:28:15;;;;;;;2.15;1.20;;;;;;;10.97;100.00;101374.28;4937193;29;20106;-79
2022/09/18 13:30:41;;;;;;;2.20;1.00;;;;;;;10.92;100.00;101360.72;4951225;29;20043;-79
2022/09/18 13:33:33;;;;;;;2.47;1.10;;;;;;;11.09;100.00;101378.84;4936321;29;20035;-80
2022/09/18 13:35:58;;;;;;;2.72;1.10;;;;;;;11.03;100.00;101373.50;4929529;29;20044;-79
2022/09/18 13:38:27;;;;;;;2.85;1.00;;;;;;;11.02;100.00;101353.94;4935051;29;20050;-80
2022/09/18 13:41:02;;;;;;;4.68;1.55;;;;;;;11.13;100.00;101366.72;4934579;29;20077;-80
2022/09/18 13:43:27;;;;;;;1.52;1.17;;;;;;;11.11;100.00;101358.06;4936109;29;20057;-80
2022/09/18 13:45:55;;;;;;;4.03;1.20;;;;;;;11.18;100.00;101358.06;4939079;29;20130;-80
2022/09/18 13:48:38;;;;;;;2.58;1.70;;;;;;;11.24;100.00;101356.41;4936077;29;20069;-80
2022/09/18 13:51:07;;;;;;;3.75;1.30;;;;;;;11.28;100.00;101355.81;4936318;29;20416;-81
2022/09/18 13:53:37;;;;;;;2.67;1.13;;;;;;;11.36;100.00;101350.25;4934371;29;20046;-81
2022/09/18 13:56:04;;;;;;;1.70;0.88;;;;;;;11.38;100.00;101360.75;4950875;29;20035;-81
2022/09/18 13:58:34;;;;;;;1.63;1.05;;;;;;;11.35;100.00;101350.47;4939012;29;20401;-81
2022/09/18 14:01:06;;;;;;;3.42;1.48;;;;;;;11.35;100.00;101359.31;4935274;29;20038;-81
2022/09/18 14:03:35;;;;;;;1.92;1.35;;;;;;;11.38;100.00;101364.25;4938683;28;20097;-82
2022/09/18 14:06:35;;;;;;;3.83;1.30;;;;;;;11.33;100.00;101358.69;4936858;29;20055;-81
2022/09/18 14:09:21;;;;;;;3.00;1.50;;;;;;;11.32;100.00;101362.41;4934688;29;20077;-81
2022/09/18 14:11:46;;;;;;;3.40;1.70;;;;;;;11.33;100.00;101364.06;4934428;29;20063;-82
2022/09/18 14:14:13;;;;;;;2.67;1.50;;;;;;;11.30;100.00;101360.97;4935850;29;20094;-82
2022/09/18 14:16:42;;;;;;;159.88;68.43;;;;;;;11.26;100.00;101352.50;4950043;29;20064;-81
2022/09/18 14:19:31;;;;;;;5.10;2.90;;;;;;;11.28;100.00;101358.50;4935780;29;20032;-82
2022/09/18 14:21:58;;;;;;;5.57;2.40;;;;;;;11.30;100.00;101352.94;4938621;29;20057;-82
2022/09/18 14:24:48;;;;;;;4.18;2.47;;;;;;;11.35;100.00;101364.66;4935712;29;20393;-80
2022/09/18 14:27:34;;;;;;;7.28;5.63;;;;;;;11.27;100.00;101375.56;4949577;28;20132;-80
2022/09/18 14:30:11;;;;;;;7.35;4.15;;;;;;;11.16;100.00;101373.50;4935505;29;20111;-79
2022/09/18 14:32:37;;;;;;;5.00;3.95;;;;;;;11.07;100.00;101370.22;4950201;29;20027;-80
2022/09/18 14:35:25;;;;;;;4.82;2.08;;;;;;;11.06;100.00;101363.22;4938255;29;20051;-80
2022/09/18 14:37:51;;;;;;;8.63;2.47;;;;;;;11.08;100.00;101371.84;4950099;29;20122;-79